sensor_id;sensor_type;location;lat;lon;timestamp;temperature;humidity
20070;DHT22;10195;50.868;4.382;2022-10-17T00:00:15;16.10;99.90
20070;DHT22;10195;50.868;4.382;2022-10-17T00:02:41;16.10;99.90
20070;DHT22;10195;50.868;4.382;2022-10-17T00:05:07;16.10;99.90
20070;DHT22;10195;50.868;4.382;2022-10-17T00:07:33;16.20;99.90
20070;DHT22;10195;50.868;4.382;2022-10-17T00:09:59;16.30;99.90
20070;DHT22;10195;50.868;4.382;2022-10-17T00:12:24;16.30;99.90
20070;DHT22;10195;50.868;4.382;2022-10-17T00:14:50;16.30;99.90
20070;DHT22;10195;50.868;4.382;2022-10-17T00:17:15;16.20;99.90
20070;DHT22;10195;50.868;4.382;2022-10-17T00:19:41;16.30;99.90
20070;DHT22;10195;50.868;4.382;2022-10-17T00:22:07;16.30;99.90
20070;DHT22;10195;50.868;4.382;2022-10-17T00:24:32;16.20;99.90
20070;DHT22;10195;50.868;4.382;2022-10-17T00:26:58;16.30;99.90
20070;DHT22;10195;50.868;4.382;2022-10-17T00:29:24;16.40;99.90
20070;DHT22;10195;50.868;4.382;2022-10-17T00:31:53;16.30;99.90
20070;DHT22;10195;50.868;4.382;2022-10-17T00:34:19;16.40;99.90
20070;DHT22;10195;50.868;4.382;2022-10-17T00:36:44;16.40;99.90
20070;DHT22;10195;50.868;4.382;2022-10-17T00:39:10;16.40;99.90
20070;DHT22;10195;50.868;4.382;2022-10-17T00:41:36;16.40;99.90
20070;DHT22;10195;50.868;4.382;2022-10-17T00:44:53;16.40;99.90
20070;DHT22;10195;50.868;4.382;2022-10-17T00:46:52;16.30;99.90
20070;DHT22;10195;50.868;4.382;2022-10-17T00:49:18;16.40;99.90
20070;DHT22;10195;50.868;4.382;2022-10-17T00:51:48;16.40;99.90
20070;DHT22;10195;50.868;4.382;2022-10-17T00:54:16;16.60;99.90
20070;DHT22;10195;50.868;4.382;2022-10-17T00:56:44;16.50;99.90
20070;DHT22;10195;50.868;4.382;2022-10-17T00:59:12;16.50;99.90
20070;DHT22;10195;50.868;4.382;2022-10-17T01:01:42;16.70;99.90
20070;DHT22;10195;50.868;4.382;2022-10-17T01:04:12;16.70;99.90
20070;DHT22;10195;50.868;4.382;2022-10-17T01:06:37;16.80;99.90
20070;DHT22;10195;50.868;4.382;2022-10-17T01:09:03;16.80;99.90
20070;DHT22;10195;50.868;4.382;2022-10-17T01:12:24;16.90;99.90
20070;DHT22;10195;50.868;4.382;2022-10-17T01:14:28;16.90;99.90
20070;DHT22;10195;50.868;4.382;2022-10-17T01:17:10;17.00;99.90
20070;DHT22;10195;50.868;4.382;2022-10-17T01:22:34;17.00;99.90
20070;DHT22;10195;50.868;4.382;2022-10-17T01:30:28;17.10;99.90
20070;DHT22;10195;50.868;4.382;2022-10-17T01:33:09;17.10;99.90
20070;DHT22;10195;50.868;4.382;2022-10-17T01:35:46;17.20;99.90
20070;DHT22;10195;50.868;4.382;2022-10-17T01:44:20;17.20;99.90
20070;DHT22;10195;50.868;4.382;2022-10-17T01:46:53;17.20;99.90
20070;DHT22;10195;50.868;4.382;2022-10-17T01:49:25;17.20;99.90
20070;DHT22;10195;50.868;4.382;2022-10-17T01:52:12;17.30;99.90
20070;DHT22;10195;50.868;4.382;2022-10-17T01:54:43;17.30;99.90
20070;DHT22;10195;50.868;4.382;2022-10-17T01:57:35;17.30;99.90
20070;DHT22;10195;50.868;4.382;2022-10-17T01:59:59;17.30;99.90
20070;DHT22;10195;50.868;4.382;2022-10-17T02:02:25;17.40;99.90
20070;DHT22;10195;50.868;4.382;2022-10-17T02:04:53;17.40;99.90
20070;DHT22;10195;50.868;4.382;2022-10-17T02:07:20;17.40;99.90
20070;DHT22;10195;50.868;4.382;2022-10-17T02:09:45;17.50;99.90
20070;DHT22;10195;50.868;4.382;2022-10-17T02:15:33;17.60;99.90
20070;DHT22;10195;50.868;4.382;2022-10-17T02:21:00;17.70;99.90
20070;DHT22;10195;50.868;4.382;2022-10-17T02:23:36;17.70;99.90
20070;DHT22;10195;50.868;4.382;2022-10-17T02:26:18;17.80;99.90
20070;DHT22;10195;50.868;4.382;2022-10-17T02:29:08;17.80;99.90
20070;DHT22;10195;50.868;4.382;2022-10-17T02:31:40;18.00;99.90
20070;DHT22;10195;50.868;4.382;2022-10-17T02:34:19;18.00;99.90
20070;DHT22;10195;50.868;4.382;2022-10-17T02:36:51;18.00;99.90
20070;DHT22;10195;50.868;4.382;2022-10-17T02:39:19;17.90;99.90
20070;DHT22;10195;50.868;4.382;2022-10-17T02:41:48;17.90;99.90
20070;DHT22;10195;50.868;4.382;2022-10-17T02:44:14;17.90;99.90
20070;DHT22;10195;50.868;4.382;2022-10-17T02:46:41;17.90;99.90
20070;DHT22;10195;50.868;4.382;2022-10-17T02:49:19;18.00;99.90
20070;DHT22;10195;50.868;4.382;2022-10-17T02:51:56;18.00;99.90
20070;DHT22;10195;50.868;4.382;2022-10-17T02:57:08;18.00;99.90
20070;DHT22;10195;50.868;4.382;2022-10-17T02:59:37;18.00;99.90
20070;DHT22;10195;50.868;4.382;2022-10-17T03:02:06;18.00;99.90
20070;DHT22;10195;50.868;4.382;2022-10-17T03:04:32;18.00;99.90
20070;DHT22;10195;50.868;4.382;2022-10-17T03:06:58;18.00;99.90
20070;DHT22;10195;50.868;4.382;2022-10-17T03:09:24;18.00;99.90
20070;DHT22;10195;50.868;4.382;2022-10-17T03:11:50;18.00;99.90
20070;DHT22;10195;50.868;4.382;2022-10-17T03:14:16;18.00;99.90
20070;DHT22;10195;50.868;4.382;2022-10-17T03:16:41;18.00;99.90
20070;DHT22;10195;50.868;4.382;2022-10-17T03:19:07;18.00;99.90
20070;DHT22;10195;50.868;4.382;2022-10-17T03:21:33;18.00;99.90
20070;DHT22;10195;50.868;4.382;2022-10-17T03:24:01;18.10;99.90
20070;DHT22;10195;50.868;4.382;2022-10-17T03:26:26;18.20;99.90
20070;DHT22;10195;50.868;4.382;2022-10-17T03:28:53;18.20;99.90
20070;DHT22;10195;50.868;4.382;2022-10-17T03:31:19;18.20;99.90
20070;DHT22;10195;50.868;4.382;2022-10-17T03:33:45;18.10;99.90
20070;DHT22;10195;50.868;4.382;2022-10-17T03:36:13;18.10;99.90
20070;DHT22;10195;50.868;4.382;2022-10-17T03:38:40;18.20;99.90
20070;DHT22;10195;50.868;4.382;2022-10-17T03:41:06;18.10;99.90
20070;DHT22;10195;50.868;4.382;2022-10-17T03:43:32;18.10;99.90
20070;DHT22;10195;50.868;4.382;2022-10-17T03:45:59;18.10;99.90
20070;DHT22;10195;50.868;4.382;2022-10-17T03:48:25;18.00;99.90
20070;DHT22;10195;50.868;4.382;2022-10-17T03:50:51;18.00;99.90
20070;DHT22;10195;50.868;4.382;2022-10-17T03:53:17;18.10;99.90
20070;DHT22;10195;50.868;4.382;2022-10-17T03:55:43;18.10;99.90
20070;DHT22;10195;50.868;4.382;2022-10-17T03:58:09;18.10;99.90
20070;DHT22;10195;50.868;4.382;2022-10-17T04:00:35;18.00;99.90
20070;DHT22;10195;50.868;4.382;2022-10-17T04:03:00;18.10;99.90
20070;DHT22;10195;50.868;4.382;2022-10-17T04:05:26;18.10;99.90
20070;DHT22;10195;50.868;4.382;2022-10-17T04:07:52;18.10;99.90
20070;DHT22;10195;50.868;4.382;2022-10-17T04:10:17;18.10;99.90
20070;DHT22;10195;50.868;4.382;2022-10-17T04:12:43;18.20;99.90
20070;DHT22;10195;50.868;4.382;2022-10-17T04:15:09;18.20;99.90
20070;DHT22;10195;50.868;4.382;2022-10-17T04:17:35;18.10;99.90
20070;DHT22;10195;50.868;4.382;2022-10-17T04:20:00;18.10;99.90
20070;DHT22;10195;50.868;4.382;2022-10-17T04:22:26;18.20;99.90
20070;DHT22;10195;50.868;4.382;2022-10-17T04:24:52;18.20;99.90
20070;DHT22;10195;50.868;4.382;2022-10-17T04:27:17;18.20;99.90
20070;DHT22;10195;50.868;4.382;2022-10-17T04:29:46;18.20;99.90
20070;DHT22;10195;50.868;4.382;2022-10-17T04:32:12;18.20;99.90
20070;DHT22;10195;50.868;4.382;2022-10-17T04:34:37;18.20;99.90
20070;DHT22;10195;50.868;4.382;2022-10-17T04:37:03;18.10;99.90
20070;DHT22;10195;50.868;4.382;2022-10-17T04:39:28;18.10;99.90
20070;DHT22;10195;50.868;4.382;2022-10-17T04:41:54;18.10;99.90
20070;DHT22;10195;50.868;4.382;2022-10-17T04:44:21;18.10;99.90
20070;DHT22;10195;50.868;4.382;2022-10-17T04:46:46;18.00;99.90
20070;DHT22;10195;50.868;4.382;2022-10-17T04:49:12;18.00;99.90
20070;DHT22;10195;50.868;4.382;2022-10-17T04:51:38;18.00;99.90
20070;DHT22;10195;50.868;4.382;2022-10-17T04:54:03;18.00;99.90
20070;DHT22;10195;50.868;4.382;2022-10-17T04:56:29;18.00;99.90
20070;DHT22;10195;50.868;4.382;2022-10-17T04:58:57;18.00;99.90
20070;DHT22;10195;50.868;4.382;2022-10-17T05:01:23;18.00;99.90
20070;DHT22;10195;50.868;4.382;2022-10-17T05:03:50;18.00;99.90
20070;DHT22;10195;50.868;4.382;2022-10-17T05:06:20;18.00;99.90
20070;DHT22;10195;50.868;4.382;2022-10-17T05:08:47;17.90;99.90
20070;DHT22;10195;50.868;4.382;2022-10-17T05:11:24;17.90;99.90
20070;DHT22;10195;50.868;4.382;2022-10-17T05:14:00;17.90;99.90
20070;DHT22;10195;50.868;4.382;2022-10-17T05:16:27;18.00;99.90
20070;DHT22;10195;50.868;4.382;2022-10-17T05:18:55;18.00;99.90
20070;DHT22;10195;50.868;4.382;2022-10-17T05:21:23;17.90;99.90
20070;DHT22;10195;50.868;4.382;2022-10-17T05:23:49;17.90;99.90
20070;DHT22;10195;50.868;4.382;2022-10-17T05:26:15;17.90;99.90
20070;DHT22;10195;50.868;4.382;2022-10-17T05:28:41;17.90;99.90
20070;DHT22;10195;50.868;4.382;2022-10-17T05:31:08;17.90;99.90
20070;DHT22;10195;50.868;4.382;2022-10-17T05:33:35;18.00;99.90
20070;DHT22;10195;50.868;4.382;2022-10-17T05:36:01;18.00;99.90
20070;DHT22;10195;50.868;4.382;2022-10-17T05:38:27;18.00;99.90
20070;DHT22;10195;50.868;4.382;2022-10-17T05:40:59;18.00;99.90
20070;DHT22;10195;50.868;4.382;2022-10-17T05:43:26;18.10;99.90
20070;DHT22;10195;50.868;4.382;2022-10-17T05:45:52;18.10;99.90
20070;DHT22;10195;50.868;4.382;2022-10-17T05:48:18;18.00;99.90
20070;DHT22;10195;50.868;4.382;2022-10-17T05:50:44;18.10;99.90
20070;DHT22;10195;50.868;4.382;2022-10-17T05:53:10;18.10;99.90
20070;DHT22;10195;50.868;4.382;2022-10-17T05:55:35;18.10;99.90
20070;DHT22;10195;50.868;4.382;2022-10-17T05:58:01;18.20;99.90
20070;DHT22;10195;50.868;4.382;2022-10-17T06:00:27;18.20;99.90
20070;DHT22;10195;50.868;4.382;2022-10-17T06:02:52;18.10;99.90
20070;DHT22;10195;50.868;4.382;2022-10-17T06:05:19;18.10;99.90
20070;DHT22;10195;50.868;4.382;2022-10-17T06:07:45;18.10;99.90
20070;DHT22;10195;50.868;4.382;2022-10-17T06:10:13;18.20;99.90
20070;DHT22;10195;50.868;4.382;2022-10-17T06:12:43;18.20;99.90
20070;DHT22;10195;50.868;4.382;2022-10-17T06:15:10;18.20;99.90
20070;DHT22;10195;50.868;4.382;2022-10-17T06:17:36;18.20;99.90
20070;DHT22;10195;50.868;4.382;2022-10-17T06:20:02;18.30;99.90
20070;DHT22;10195;50.868;4.382;2022-10-17T06:22:28;18.30;99.90
20070;DHT22;10195;50.868;4.382;2022-10-17T06:24:53;18.20;99.90
20070;DHT22;10195;50.868;4.382;2022-10-17T06:27:20;18.30;99.90
20070;DHT22;10195;50.868;4.382;2022-10-17T06:29:46;18.30;99.90
20070;DHT22;10195;50.868;4.382;2022-10-17T06:32:12;18.50;99.90
20070;DHT22;10195;50.868;4.382;2022-10-17T06:34:38;18.50;99.90
20070;DHT22;10195;50.868;4.382;2022-10-17T06:37:04;18.50;99.90
20070;DHT22;10195;50.868;4.382;2022-10-17T06:39:29;18.50;99.90
20070;DHT22;10195;50.868;4.382;2022-10-17T06:41:59;18.40;99.90
20070;DHT22;10195;50.868;4.382;2022-10-17T06:44:25;18.50;99.90
20070;DHT22;10195;50.868;4.382;2022-10-17T06:46:55;18.50;99.90
20070;DHT22;10195;50.868;4.382;2022-10-17T06:49:21;18.50;99.90
20070;DHT22;10195;50.868;4.382;2022-10-17T06:51:47;18.50;99.90
20070;DHT22;10195;50.868;4.382;2022-10-17T06:54:13;18.50;99.90
20070;DHT22;10195;50.868;4.382;2022-10-17T06:56:38;18.60;99.90
20070;DHT22;10195;50.868;4.382;2022-10-17T06:59:04;18.70;99.90
20070;DHT22;10195;50.868;4.382;2022-10-17T07:01:30;18.70;99.90
20070;DHT22;10195;50.868;4.382;2022-10-17T07:03:56;18.70;99.90
20070;DHT22;10195;50.868;4.382;2022-10-17T07:06:22;18.70;99.90
20070;DHT22;10195;50.868;4.382;2022-10-17T07:08:49;18.70;99.90
20070;DHT22;10195;50.868;4.382;2022-10-17T07:11:17;18.80;99.90
20070;DHT22;10195;50.868;4.382;2022-10-17T07:13:43;18.90;99.90
20070;DHT22;10195;50.868;4.382;2022-10-17T07:16:10;18.90;99.90
20070;DHT22;10195;50.868;4.382;2022-10-17T07:18:36;18.90;99.90
20070;DHT22;10195;50.868;4.382;2022-10-17T07:21:02;18.90;99.90
20070;DHT22;10195;50.868;4.382;2022-10-17T07:23:28;18.90;99.90
20070;DHT22;10195;50.868;4.382;2022-10-17T07:25:59;19.00;99.90
20070;DHT22;10195;50.868;4.382;2022-10-17T07:28:25;18.90;99.90
20070;DHT22;10195;50.868;4.382;2022-10-17T07:30:51;18.90;99.90
20070;DHT22;10195;50.868;4.382;2022-10-17T07:33:17;18.90;99.90
20070;DHT22;10195;50.868;4.382;2022-10-17T07:35:42;18.80;99.90
20070;DHT22;10195;50.868;4.382;2022-10-17T07:38:08;18.80;99.90
20070;DHT22;10195;50.868;4.382;2022-10-17T07:40:34;18.70;99.90
20070;DHT22;10195;50.868;4.382;2022-10-17T07:42:59;18.60;99.90
20070;DHT22;10195;50.868;4.382;2022-10-17T07:45:25;18.50;99.90
20070;DHT22;10195;50.868;4.382;2022-10-17T07:47:55;18.40;99.90
20070;DHT22;10195;50.868;4.382;2022-10-17T07:50:21;18.50;99.90
20070;DHT22;10195;50.868;4.382;2022-10-17T07:52:47;18.50;99.90
20070;DHT22;10195;50.868;4.382;2022-10-17T07:55:13;18.40;99.90
20070;DHT22;10195;50.868;4.382;2022-10-17T07:57:38;18.30;99.90
20070;DHT22;10195;50.868;4.382;2022-10-17T08:00:06;18.30;99.90
20070;DHT22;10195;50.868;4.382;2022-10-17T08:02:32;18.40;99.90
20070;DHT22;10195;50.868;4.382;2022-10-17T08:04:57;18.40;99.90
20070;DHT22;10195;50.868;4.382;2022-10-17T08:07:23;18.40;99.90
20070;DHT22;10195;50.868;4.382;2022-10-17T08:09:49;18.40;99.90
20070;DHT22;10195;50.868;4.382;2022-10-17T08:12:15;18.40;99.90
20070;DHT22;10195;50.868;4.382;2022-10-17T08:14:41;18.40;99.90
20070;DHT22;10195;50.868;4.382;2022-10-17T08:17:06;18.40;99.90
20070;DHT22;10195;50.868;4.382;2022-10-17T08:19:32;18.30;99.90
20070;DHT22;10195;50.868;4.382;2022-10-17T08:21:57;18.30;99.90
20070;DHT22;10195;50.868;4.382;2022-10-17T08:24:24;18.20;99.90
20070;DHT22;10195;50.868;4.382;2022-10-17T08:26:49;18.20;99.90
20070;DHT22;10195;50.868;4.382;2022-10-17T08:29:17;18.10;99.90
20070;DHT22;10195;50.868;4.382;2022-10-17T08:31:43;18.10;99.90
20070;DHT22;10195;50.868;4.382;2022-10-17T08:34:08;18.20;99.90
20070;DHT22;10195;50.868;4.382;2022-10-17T08:36:34;18.10;99.90
20070;DHT22;10195;50.868;4.382;2022-10-17T08:39:00;18.20;99.90
20070;DHT22;10195;50.868;4.382;2022-10-17T08:42:00;18.40;99.90
20070;DHT22;10195;50.868;4.382;2022-10-17T08:47:50;18.20;99.90
20070;DHT22;10195;50.868;4.382;2022-10-17T08:56:12;18.30;99.90
20070;DHT22;10195;50.868;4.382;2022-10-17T08:58:38;18.20;99.90
20070;DHT22;10195;50.868;4.382;2022-10-17T09:01:24;18.20;99.90
20070;DHT22;10195;50.868;4.382;2022-10-17T09:06:42;18.30;99.90
20070;DHT22;10195;50.868;4.382;2022-10-17T09:09:48;18.30;99.90
20070;DHT22;10195;50.868;4.382;2022-10-17T09:12:22;18.40;99.90
20070;DHT22;10195;50.868;4.382;2022-10-17T09:20:20;18.40;99.90
20070;DHT22;10195;50.868;4.382;2022-10-17T09:25:24;18.40;99.90
20070;DHT22;10195;50.868;4.382;2022-10-17T09:27:55;18.40;99.90
20070;DHT22;10195;50.868;4.382;2022-10-17T09:33:19;18.40;99.90
20070;DHT22;10195;50.868;4.382;2022-10-17T09:35:45;18.50;99.90
20070;DHT22;10195;50.868;4.382;2022-10-17T09:38:17;18.60;99.90
20070;DHT22;10195;50.868;4.382;2022-10-17T09:40:44;18.70;99.90
20070;DHT22;10195;50.868;4.382;2022-10-17T09:43:12;18.70;99.90
20070;DHT22;10195;50.868;4.382;2022-10-17T09:46:06;18.80;99.90
20070;DHT22;10195;50.868;4.382;2022-10-17T09:48:39;18.80;99.90
20070;DHT22;10195;50.868;4.382;2022-10-17T09:51:08;18.90;99.90
20070;DHT22;10195;50.868;4.382;2022-10-17T09:53:39;18.90;99.90
20070;DHT22;10195;50.868;4.382;2022-10-17T09:56:13;18.80;99.90
20070;DHT22;10195;50.868;4.382;2022-10-17T09:58:45;18.90;99.90
20070;DHT22;10195;50.868;4.382;2022-10-17T10:01:27;18.90;99.90
20070;DHT22;10195;50.868;4.382;2022-10-17T10:06:36;18.90;99.90
20070;DHT22;10195;50.868;4.382;2022-10-17T10:09:02;18.80;99.90
20070;DHT22;10195;50.868;4.382;2022-10-17T10:11:49;18.80;99.90
20070;DHT22;10195;50.868;4.382;2022-10-17T10:14:33;18.70;99.90
20070;DHT22;10195;50.868;4.382;2022-10-17T10:17:05;18.50;99.90
20070;DHT22;10195;50.868;4.382;2022-10-17T10:19:49;18.60;99.90
20070;DHT22;10195;50.868;4.382;2022-10-17T10:22:18;18.70;99.90
20070;DHT22;10195;50.868;4.382;2022-10-17T10:24:43;18.90;99.90
20070;DHT22;10195;50.868;4.382;2022-10-17T10:27:14;19.00;99.90
20070;DHT22;10195;50.868;4.382;2022-10-17T10:29:42;19.00;99.90
20070;DHT22;10195;50.868;4.382;2022-10-17T10:32:26;19.00;99.90
20070;DHT22;10195;50.868;4.382;2022-10-17T10:35:06;19.10;99.90
20070;DHT22;10195;50.868;4.382;2022-10-17T10:37:43;19.20;99.90
20070;DHT22;10195;50.868;4.382;2022-10-17T10:40:28;19.40;99.90
20070;DHT22;10195;50.868;4.382;2022-10-17T10:42:57;19.60;99.90
20070;DHT22;10195;50.868;4.382;2022-10-17T10:45:28;19.70;99.90
20070;DHT22;10195;50.868;4.382;2022-10-17T10:48:20;19.60;99.90
20070;DHT22;10195;50.868;4.382;2022-10-17T10:50:55;19.70;99.90
20070;DHT22;10195;50.868;4.382;2022-10-17T10:56:17;19.60;99.90
20070;DHT22;10195;50.868;4.382;2022-10-17T11:04:02;19.30;99.90
20070;DHT22;10195;50.868;4.382;2022-10-17T11:06:37;19.20;99.90
20070;DHT22;10195;50.868;4.382;2022-10-17T11:09:09;19.20;99.90
20070;DHT22;10195;50.868;4.382;2022-10-17T11:11:42;19.10;99.90
20070;DHT22;10195;50.868;4.382;2022-10-17T11:14:31;19.20;99.90
20070;DHT22;10195;50.868;4.382;2022-10-17T11:17:08;19.10;99.90
20070;DHT22;10195;50.868;4.382;2022-10-17T11:19:53;19.00;99.90
20070;DHT22;10195;50.868;4.382;2022-10-17T11:22:27;19.00;99.90
20070;DHT22;10195;50.868;4.382;2022-10-17T11:25:04;19.10;99.90
20070;DHT22;10195;50.868;4.382;2022-10-17T11:27:31;19.20;99.90
20070;DHT22;10195;50.868;4.382;2022-10-17T11:29:58;19.30;99.90
20070;DHT22;10195;50.868;4.382;2022-10-17T11:38:13;19.10;99.90
20070;DHT22;10195;50.868;4.382;2022-10-17T11:40:44;18.90;99.90
20070;DHT22;10195;50.868;4.382;2022-10-17T11:43:15;18.80;99.90
20070;DHT22;10195;50.868;4.382;2022-10-17T11:45:47;18.80;99.90
20070;DHT22;10195;50.868;4.382;2022-10-17T11:48:34;18.80;99.90
20070;DHT22;10195;50.868;4.382;2022-10-17T11:51:11;18.80;99.90
20070;DHT22;10195;50.868;4.382;2022-10-17T11:56:41;19.00;99.90
20070;DHT22;10195;50.868;4.382;2022-10-17T11:59:52;19.10;99.90
20070;DHT22;10195;50.868;4.382;2022-10-17T12:02:33;19.20;99.90
20070;DHT22;10195;50.868;4.382;2022-10-17T12:05:18;19.10;99.90
20070;DHT22;10195;50.868;4.382;2022-10-17T12:07:58;19.10;99.90
20070;DHT22;10195;50.868;4.382;2022-10-17T12:10:50;19.20;99.90
20070;DHT22;10195;50.868;4.382;2022-10-17T12:15:52;19.20;99.90
20070;DHT22;10195;50.868;4.382;2022-10-17T12:18:18;19.40;99.90
20070;DHT22;10195;50.868;4.382;2022-10-17T12:20:55;19.40;99.90
20070;DHT22;10195;50.868;4.382;2022-10-17T12:26:01;19.60;99.90
20070;DHT22;10195;50.868;4.382;2022-10-17T12:31:28;19.60;99.90
20070;DHT22;10195;50.868;4.382;2022-10-17T12:33:56;19.60;99.90
20070;DHT22;10195;50.868;4.382;2022-10-17T12:52:15;19.60;99.90
20070;DHT22;10195;50.868;4.382;2022-10-17T12:54:58;19.40;99.90
20070;DHT22;10195;50.868;4.382;2022-10-17T13:02:54;19.40;99.90
20070;DHT22;10195;50.868;4.382;2022-10-17T13:05:35;19.60;99.90
20070;DHT22;10195;50.868;4.382;2022-10-17T13:08:04;19.70;99.90
20070;DHT22;10195;50.868;4.382;2022-10-17T13:10:35;19.80;99.90
20070;DHT22;10195;50.868;4.382;2022-10-17T13:16:06;19.90;99.90
20070;DHT22;10195;50.868;4.382;2022-10-17T13:18:32;19.80;99.90
20070;DHT22;10195;50.868;4.382;2022-10-17T13:23:34;20.00;99.90
20070;DHT22;10195;50.868;4.382;2022-10-17T13:26:13;20.20;99.90
20070;DHT22;10195;50.868;4.382;2022-10-17T13:28:41;20.30;99.90
20070;DHT22;10195;50.868;4.382;2022-10-17T13:31:26;20.40;99.90
20070;DHT22;10195;50.868;4.382;2022-10-17T13:33:56;20.40;99.90
20070;DHT22;10195;50.868;4.382;2022-10-17T13:36:23;20.30;99.90
20070;DHT22;10195;50.868;4.382;2022-10-17T13:38:49;20.40;99.90
20070;DHT22;10195;50.868;4.382;2022-10-17T13:41:28;20.50;99.90
20070;DHT22;10195;50.868;4.382;2022-10-17T13:43:55;20.50;99.90
20070;DHT22;10195;50.868;4.382;2022-10-17T13:46:40;20.50;99.90
20070;DHT22;10195;50.868;4.382;2022-10-17T13:51:51;20.60;99.90
20070;DHT22;10195;50.868;4.382;2022-10-17T13:54:41;20.60;99.90
20070;DHT22;10195;50.868;4.382;2022-10-17T13:57:25;20.70;99.90
20070;DHT22;10195;50.868;4.382;2022-10-17T13:59:56;20.70;99.90
20070;DHT22;10195;50.868;4.382;2022-10-17T14:02:30;20.50;99.90
20070;DHT22;10195;50.868;4.382;2022-10-17T14:05:18;20.50;99.90
20070;DHT22;10195;50.868;4.382;2022-10-17T14:07:56;20.30;99.90
20070;DHT22;10195;50.868;4.382;2022-10-17T14:10:26;20.40;99.90
20070;DHT22;10195;50.868;4.382;2022-10-17T14:12:54;20.30;99.90
20070;DHT22;10195;50.868;4.382;2022-10-17T14:15:23;20.30;99.90
20070;DHT22;10195;50.868;4.382;2022-10-17T14:18:04;20.30;99.90
20070;DHT22;10195;50.868;4.382;2022-10-17T14:20:32;20.20;99.90
20070;DHT22;10195;50.868;4.382;2022-10-17T14:22:59;20.20;99.90
20070;DHT22;10195;50.868;4.382;2022-10-17T14:25:45;20.20;99.90
20070;DHT22;10195;50.868;4.382;2022-10-17T14:30:47;20.20;99.90
20070;DHT22;10195;50.868;4.382;2022-10-17T14:33:27;20.20;99.90
20070;DHT22;10195;50.868;4.382;2022-10-17T14:35:55;20.30;99.90
20070;DHT22;10195;50.868;4.382;2022-10-17T14:38:22;20.40;99.90
20070;DHT22;10195;50.868;4.382;2022-10-17T14:41:02;20.40;99.90
20070;DHT22;10195;50.868;4.382;2022-10-17T14:43:29;20.30;99.90
20070;DHT22;10195;50.868;4.382;2022-10-17T14:45:57;20.20;99.90
20070;DHT22;10195;50.868;4.382;2022-10-17T14:48:24;20.30;99.90
20070;DHT22;10195;50.868;4.382;2022-10-17T14:51:12;20.10;99.90
20070;DHT22;10195;50.868;4.382;2022-10-17T14:53:41;20.00;99.90
20070;DHT22;10195;50.868;4.382;2022-10-17T14:56:24;20.00;99.90
20070;DHT22;10195;50.868;4.382;2022-10-17T14:58:50;20.10;99.90
20070;DHT22;10195;50.868;4.382;2022-10-17T15:01:17;19.90;99.90
20070;DHT22;10195;50.868;4.382;2022-10-17T15:03:43;19.90;99.90
20070;DHT22;10195;50.868;4.382;2022-10-17T15:06:20;20.00;99.90
20070;DHT22;10195;50.868;4.382;2022-10-17T15:08:47;20.10;99.90
20070;DHT22;10195;50.868;4.382;2022-10-17T15:11:12;20.00;99.90
20070;DHT22;10195;50.868;4.382;2022-10-17T15:13:38;20.00;99.90
20070;DHT22;10195;50.868;4.382;2022-10-17T15:16:20;19.90;99.90
20070;DHT22;10195;50.868;4.382;2022-10-17T15:18:46;19.90;99.90
20070;DHT22;10195;50.868;4.382;2022-10-17T15:21:16;19.80;99.90
20070;DHT22;10195;50.868;4.382;2022-10-17T15:23:42;19.70;99.90
20070;DHT22;10195;50.868;4.382;2022-10-17T15:28:42;19.60;99.90
20070;DHT22;10195;50.868;4.382;2022-10-17T15:31:13;19.70;99.90
20070;DHT22;10195;50.868;4.382;2022-10-17T15:33:39;19.70;99.90
20070;DHT22;10195;50.868;4.382;2022-10-17T15:36:15;19.70;99.90
20070;DHT22;10195;50.868;4.382;2022-10-17T15:38:41;19.80;99.90
20070;DHT22;10195;50.868;4.382;2022-10-17T15:41:09;19.80;99.90
20070;DHT22;10195;50.868;4.382;2022-10-17T15:43:35;19.60;99.90
20070;DHT22;10195;50.868;4.382;2022-10-17T15:46:01;19.60;99.90
20070;DHT22;10195;50.868;4.382;2022-10-17T15:48:29;19.50;99.90
20070;DHT22;10195;50.868;4.382;2022-10-17T15:50:56;19.40;99.90
20070;DHT22;10195;50.868;4.382;2022-10-17T15:53:22;19.40;99.90
20070;DHT22;10195;50.868;4.382;2022-10-17T15:55:48;19.40;99.90
20070;DHT22;10195;50.868;4.382;2022-10-17T15:58:16;19.50;99.90
20070;DHT22;10195;50.868;4.382;2022-10-17T16:00:43;19.50;99.90
20070;DHT22;10195;50.868;4.382;2022-10-17T16:03:09;19.40;99.90
20070;DHT22;10195;50.868;4.382;2022-10-17T16:05:35;19.30;99.90
20070;DHT22;10195;50.868;4.382;2022-10-17T16:08:00;19.30;99.90
20070;DHT22;10195;50.868;4.382;2022-10-17T16:10:26;19.30;99.90
20070;DHT22;10195;50.868;4.382;2022-10-17T16:12:53;19.40;99.90
20070;DHT22;10195;50.868;4.382;2022-10-17T16:15:21;19.40;99.90
20070;DHT22;10195;50.868;4.382;2022-10-17T16:17:51;19.30;99.90
20070;DHT22;10195;50.868;4.382;2022-10-17T16:20:18;19.40;99.90
20070;DHT22;10195;50.868;4.382;2022-10-17T16:22:44;19.40;99.90
20070;DHT22;10195;50.868;4.382;2022-10-17T16:25:23;19.40;99.90
20070;DHT22;10195;50.868;4.382;2022-10-17T16:27:51;19.30;99.90
20070;DHT22;10195;50.868;4.382;2022-10-17T16:30:18;19.20;99.90
20070;DHT22;10195;50.868;4.382;2022-10-17T16:32:43;19.30;99.90
20070;DHT22;10195;50.868;4.382;2022-10-17T16:35:15;19.30;99.90
20070;DHT22;10195;50.868;4.382;2022-10-17T16:37:41;19.30;99.90
20070;DHT22;10195;50.868;4.382;2022-10-17T16:40:07;19.40;99.90
20070;DHT22;10195;50.868;4.382;2022-10-17T16:42:33;19.30;99.90
20070;DHT22;10195;50.868;4.382;2022-10-17T16:44:59;19.20;99.90
20070;DHT22;10195;50.868;4.382;2022-10-17T16:47:24;19.10;99.90
20070;DHT22;10195;50.868;4.382;2022-10-17T16:49:50;19.10;99.90
20070;DHT22;10195;50.868;4.382;2022-10-17T16:52:15;19.20;99.90
20070;DHT22;10195;50.868;4.382;2022-10-17T16:54:41;19.10;99.90
20070;DHT22;10195;50.868;4.382;2022-10-17T16:57:07;19.00;99.90
20070;DHT22;10195;50.868;4.382;2022-10-17T16:59:33;18.80;99.90
20070;DHT22;10195;50.868;4.382;2022-10-17T17:01:58;18.80;99.90
20070;DHT22;10195;50.868;4.382;2022-10-17T17:04:24;18.80;99.90
20070;DHT22;10195;50.868;4.382;2022-10-17T17:06:49;18.80;99.90
20070;DHT22;10195;50.868;4.382;2022-10-17T17:09:15;18.90;99.90
20070;DHT22;10195;50.868;4.382;2022-10-17T17:11:41;18.70;99.90
20070;DHT22;10195;50.868;4.382;2022-10-17T17:14:07;18.70;99.90
20070;DHT22;10195;50.868;4.382;2022-10-17T17:16:33;18.70;99.90
20070;DHT22;10195;50.868;4.382;2022-10-17T17:19:04;18.70;99.90
20070;DHT22;10195;50.868;4.382;2022-10-17T17:21:31;18.70;99.90
20070;DHT22;10195;50.868;4.382;2022-10-17T17:23:59;18.70;99.90
20070;DHT22;10195;50.868;4.382;2022-10-17T17:26:27;18.70;99.90
20070;DHT22;10195;50.868;4.382;2022-10-17T17:28:55;18.60;99.90
20070;DHT22;10195;50.868;4.382;2022-10-17T17:31:23;18.50;99.90
20070;DHT22;10195;50.868;4.382;2022-10-17T17:33:49;18.50;99.90